WEATHER DATA

YESTERDAY
Time Temp. Dewp. Hum. Bar.
00:02 14.4 7.5 63 1019
00:11 14.1 7.4 64 1018.8
00:22 13.8 7.3 65 1018.8
00:32 13.6 7.4 66 1019
00:42 13.4 7.2 66 1018.9
00:51 13.2 7.2 67 1019
01:02 12.9 7.1 68 1018.9
01:12 12.7 7 68 1018.8
01:33 12.6 6.9 68 1019
01:42 12.5 6.8 68 1018.8
01:52 12.2 6.7 69 1018.8
02:02 12.1 6.8 70 1018.9
02:13 11.8 6.5 70 1018.9
02:23 11.6 6.7 72 1019
02:32 11.4 6.5 72 1019
02:43 11.1 6.4 73 1018.9
02:53 11 6.6 74 1019.1
03:03 10.9 6.5 74 1019.1
03:12 10.8 6.4 74 1019.1
03:23 10.6 6.4 75 1019.1
03:33 10.4 6.2 75 1019
03:53 10.1 6.1 76 1018.8
04:03 10 6 76 1018.7
04:13 9.9 6.1 77 1018.6
04:23 9.8 6 77 1018.5
04:34 9.6 6 78 1018.5
04:43 9.6 6 78 1018.4
04:53 9.6 6 78 1018.3
05:04 9.6 6 78 1018.2
05:14 9.5 5.9 78 1018.2
05:24 9.4 5.8 78 1018.2
05:33 9.3 5.8 79 1018.3
05:44 9.2 5.8 79 1018.3
05:54 9 5.6 79 1018.3
06:04 8.8 5.5 80 1018.3
06:14 8.8 5.7 81 1018.4
06:24 8.7 5.6 81 1018.2
06:34 8.6 5.5 81 1018.4
06:44 8.5 5.6 82 1018.3
06:55 8.4 5.5 82 1018.3
07:04 8.2 5.5 83 1018.3
07:14 8.2 5.5 83 1018.4
07:25 8.2 5.7 84 1018.4
07:35 8.1 5.6 84 1018.3
07:44 8 5.5 84 1018.5
07:54 8 5.5 84 1018.5
08:05 8 5.6 85 1018.5
08:15 8.1 5.7 85 1018.5
08:25 8.1 5.7 85 1018.4
08:35 8.1 5.7 85 1018.5
08:45 8.1 5.7 85 1018.6
08:55 8.2 5.8 85 1018.6
09:05 8.2 5.8 85 1018.5
09:15 8.3 5.9 85 1018.5
09:25 8.5 6.1 85 1018.5
09:35 8.6 6.2 85 1018.5
09:46 8.8 6.4 85 1018.5
09:55 9.1 6.7 85 1018.5
10:05 9.3 6.9 85 1018.6
10:15 9.4 6.8 84 1018.5
10:26 9.7 7.1 84 1018.6
10:36 10 7.4 84 1018.6
10:45 10.2 7.4 83 1018.8
10:56 10.4 7.6 83 1018.5
11:06 10.6 7.8 83 1018.6
11:16 11 8.2 83 1018.5
11:26 11.4 8.4 82 1018.5
11:36 11.8 8.6 81 1018.6
11:46 12.1 8.6 79 1018.4
11:56 12.5 9 79 1018.3
12:07 12.8 9.1 78 1018
12:16 13.3 9.4 77 1018
12:26 13.8 9.5 75 1017.8
12:36 14.4 9.4 72 1017.8
12:47 14.6 9.2 70 1017.7
12:56 14.9 9.3 69 1017.4
13:06 15.3 9.4 68 1017.4
13:17 15.9 9.6 66 1017.2
13:27 16.2 9.4 64 1017.1
13:37 16.5 9.7 64 1017
13:46 17.6 11 65 1016.7
13:57 18.1 9.7 58 1016.7
14:07 18.3 9.6 57 1016.7
14:17 18.7 9.8 56 1016.5
14:27 19.1 9.9 55 1016.4
14:37 19.4 9.9 54 1016.3
14:47 19.9 9.8 52 1016.1
14:57 20.2 9.8 51 1016.3
15:08 20.7 9.6 49 1016.2
15:17 21.1 10 49 1016
15:27 21.5 10 48 1016
15:38 21.9 10.1 47 1015.8
15:48 22 9.2 44 1015.8
15:57 22.2 9.4 44 1015.8
16:07 22.4 9.6 44 1015.8
16:18 22.8 9.9 44 1015.7
16:28 23.1 9.9 43 1015.6
16:38 23.2 9.6 42 1015.6
16:48 23.5 9.9 42 1015.5
16:58 23.4 9.4 41 1015.6
17:08 23.4 9.4 41 1015.6
17:18 23.3 9.7 42 1015.8
17:28 23.2 9.6 42 1015.6
17:38 22.9 9.7 43 1015.7
17:48 22.7 9.8 44 1015.5
17:59 22.5 10 45 1015.8
18:09 22.2 10 46 1015.7
18:18 21.9 9.8 46 1015.8
18:28 21.4 9.6 47 1015.7
18:39 21.3 9.9 48 1015.8
18:49 21.4 10.3 49 1016
18:58 21.4 10.3 49 1015.9
19:09 21.4 10.3 49 1016.2
19:19 21.2 10.4 50 1016.2
19:29 21 10.2 50 1016.4
19:39 20.7 10.2 51 1016.4
19:49 20.5 10 51 1016.6
19:59 20.2 9.8 51 1016.6
20:09 19.9 9.8 52 1016.5
20:20 19.7 9.6 52 1016.5
20:27 19.4 9.6 53 1016.7
20:38 19.1 9.3 53 1016.7
20:48 18.7 9.2 54 1016.7
20:58 18.3 9.1 55 1017
21:07 17.9 9 56 1017
21:18 17.4 8.5 56 1017.1
21:28 17.1 8.5 57 1016.9
21:38 16.7 8.4 58 1017.1
21:48 16.3 8.3 59 1017.3
21:58 16.1 8.3 60 1017.3
22:08 15.8 8.3 61 1017.4
22:29 15.3 8.3 63 1017.3
22:38 15.1 8.1 63 1017.5
22:48 14.9 8.2 64 1017.5
22:58 14.7 8 64 1017.6
23:09 14.4 7.9 65 1017.5
23:19 14.4 7.9 65 1017.6
23:28 14.1 7.9 66 1017.7
23:39 14 8 67 1017.5
23:49 13.8 7.8 67 1017.5

DAY STATISTIC

2018-10-17
TEMPERATURE
AVERAGE
14.5
HIGH
23.5
16:48
LOW
8.0
07:44
PRESSURE
AVERAGE
1017.6
HIGH
1019.1
02:53
LOW
1015.5
16:48
DEWPOINT
AVERAGE
7.9
HIGH
11.0
13:46
LOW
5.5
06:04
HUMIDITY
AVERAGE
67
HIGH
85
08:05
LOW
41
16:58
TEMPERATURE (°C)
LOW
8.0
HIGH
23.5
AVERAGE
14.5
PRESSURE (hpa)
LOW
1015.5
HIGH
1019.1
AVERAGE
1017.6
DEVICE